Time,TemperatureF,DewpointF,PressureIn,WindDirection,WindDirectionDegrees,WindSpeedMPH,WindSpeedGustMPH,Humidity,HourlyPrecipIn,Conditions,Clouds,dailyrainin,SolarRadiationWatts/m^2,SoftwareType,DateUTC
2013-08-07 00:01:00,58.4,55.0,30.05,SW,219,3.0,7.0,89,0.00,,,0.00,0,weatherlink.com 1.10,2013-08-07 07:01:00,
2013-08-07 00:16:00,58.3,55.0,30.05,South,175,3.0,6.0,89,0.00,,,0.00,0,weatherlink.com 1.10,2013-08-07 07:16:00,
2013-08-07 00:31:00,58.4,56.0,30.05,South,182,2.0,5.0,90,0.00,,,0.00,0,weatherlink.com 1.10,2013-08-07 07:31:00,
2013-08-07 00:46:00,58.1,56.0,30.05,South,184,3.0,9.0,91,0.00,,,0.00,0,weatherlink.com 1.10,2013-08-07 07:46:00,
2013-08-07 01:01:00,57.7,55.0,30.05,SW,228,1.0,7.0,92,0.00,,,0.00,0,weatherlink.com 1.10,2013-08-07 08:01:00,
2013-08-07 01:16:00,57.4,55.0,30.05,SSW,196,1.0,7.0,92,0.00,,,0.00,0,weatherlink.com 1.10,2013-08-07 08:16:00,
2013-08-07 01:31:00,57.4,55.0,30.05,SSW,211,4.0,5.0,91,0.00,,,0.00,0,weatherlink.com 1.10,2013-08-07 08:31:00,
2013-08-07 01:46:00,57.5,55.0,30.05,SW,220,2.0,5.0,92,0.00,,,0.00,0,weatherlink.com 1.10,2013-08-07 08:46:00,
2013-08-07 02:01:00,57.2,55.0,30.05,SSW,213,2.0,6.0,92,0.00,,,0.00,0,weatherlink.com 1.10,2013-08-07 09:01:00,
2013-08-07 02:16:00,56.9,55.0,30.05,SW,215,3.0,7.0,92,0.00,,,0.00,0,weatherlink.com 1.10,2013-08-07 09:16:00,
2013-08-07 02:31:00,56.8,55.0,30.05,South,173,1.0,7.0,92,0.00,,,0.00,0,weatherlink.com 1.10,2013-08-07 09:31:00,
2013-08-07 02:46:00,56.8,55.0,30.05,SW,221,1.0,7.0,92,0.00,,,0.00,0,weatherlink.com 1.10,2013-08-07 09:46:00,
2013-08-07 03:01:00,56.6,55.0,30.05,SSW,209,1.0,5.0,93,0.00,,,0.00,0,weatherlink.com 1.10,2013-08-07 10:01:00,
2013-08-07 03:16:00,56.3,54.0,30.06,SSE,160,0.0,6.0,93,0.00,,,0.00,0,weatherlink.com 1.10,2013-08-07 10:16:00,
2013-08-07 03:31:00,56.0,54.0,30.05,SW,236,1.0,5.0,93,0.00,,,0.00,0,weatherlink.com 1.10,2013-08-07 10:31:00,
2013-08-07 03:46:00,56.0,54.0,30.05,SSE,157,3.0,5.0,92,0.00,,,0.00,0,weatherlink.com 1.10,2013-08-07 10:46:00,
2013-08-07 04:01:00,56.3,54.0,30.05,SSW,213,1.0,6.0,91,0.00,,,0.00,0,weatherlink.com 1.10,2013-08-07 11:01:00,
2013-08-07 04:16:00,56.5,54.0,30.05,South,178,0.0,5.0,90,0.00,,,0.00,0,weatherlink.com 1.10,2013-08-07 11:16:00,
2013-08-07 04:31:00,56.7,54.0,30.05,SW,229,0.0,5.0,89,0.00,,,0.00,0,weatherlink.com 1.10,2013-08-07 11:31:00,
2013-08-07 04:46:00,56.9,54.0,30.05,SW,222,2.0,5.0,91,0.00,,,0.00,0,weatherlink.com 1.10,2013-08-07 11:46:00,
2013-08-07 05:01:00,56.6,54.0,30.05,SW,230,1.0,5.0,91,0.00,,,0.00,0,weatherlink.com 1.10,2013-08-07 12:01:00,
2013-08-07 05:16:00,56.5,54.0,30.05,SSW,209,0.0,4.0,92,0.00,,,0.00,0,weatherlink.com 1.10,2013-08-07 12:16:00,
2013-08-07 05:31:00,56.5,55.0,30.05,SW,222,2.0,4.0,93,0.00,,,0.00,0,weatherlink.com 1.10,2013-08-07 12:31:00,
2013-08-07 05:46:00,56.5,55.0,30.05,SSW,196,3.0,5.0,94,0.00,,,0.00,0,weatherlink.com 1.10,2013-08-07 12:46:00,
2013-08-07 06:01:00,56.4,55.0,30.05,SW,215,0.0,4.0,94,0.00,,,0.00,0,weatherlink.com 1.10,2013-08-07 13:01:00,
2013-08-07 06:16:00,56.2,55.0,30.05,South,188,2.0,4.0,94,0.00,,,0.00,0,weatherlink.com 1.10,2013-08-07 13:16:00,
2013-08-07 06:31:00,56.1,54.0,30.05,SW,219,2.0,4.0,94,0.00,,,0.00,5,weatherlink.com 1.10,2013-08-07 13:31:00,
2013-08-07 06:46:00,56.1,54.0,30.05,SSW,209,2.0,3.0,94,0.00,,,0.00,7,weatherlink.com 1.10,2013-08-07 13:46:00,
2013-08-07 07:01:00,56.1,54.0,30.06,South,189,1.0,5.0,94,0.00,,,0.00,14,weatherlink.com 1.10,2013-08-07 14:01:00,
2013-08-07 07:17:00,56.5,55.0,30.05,SSW,200,0.0,4.0,93,0.00,,,0.00,42,weatherlink.com 1.10,2013-08-07 14:17:00,
2013-08-07 07:32:00,56.9,55.0,30.06,NW,317,0.0,4.0,93,0.00,,,0.00,42,weatherlink.com 1.10,2013-08-07 14:32:00,
2013-08-07 07:47:00,57.1,55.0,30.06,SSW,197,2.0,7.0,93,0.00,,,0.00,46,weatherlink.com 1.10,2013-08-07 14:47:00,
2013-08-07 08:02:00,56.9,55.0,30.07,SW,222,2.0,4.0,93,0.00,,,0.00,79,weatherlink.com 1.10,2013-08-07 15:02:00,
2013-08-07 08:17:00,57.2,55.0,30.07,SSW,198,1.0,6.0,92,0.00,,,0.00,123,weatherlink.com 1.10,2013-08-07 15:17:00,
2013-08-07 08:32:00,57.7,55.0,30.08,SSW,207,0.0,5.0,91,0.00,,,0.00,134,weatherlink.com 1.10,2013-08-07 15:32:00,
2013-08-07 08:47:00,58.0,55.0,30.08,SW,215,4.0,6.0,89,0.00,,,0.00,102,weatherlink.com 1.10,2013-08-07 15:47:00,
2013-08-07 09:02:00,58.2,55.0,30.08,SSW,213,2.0,5.0,88,0.00,,,0.00,104,weatherlink.com 1.10,2013-08-07 16:02:00,
2013-08-07 09:17:00,58.5,55.0,30.09,South,189,2.0,5.0,87,0.00,,,0.00,102,weatherlink.com 1.10,2013-08-07 16:17:00,
2013-08-07 09:32:00,58.9,55.0,30.09,SSW,205,5.0,5.0,86,0.00,,,0.00,149,weatherlink.com 1.10,2013-08-07 16:32:00,
2013-08-07 09:47:00,59.4,55.0,30.09,South,181,3.0,6.0,84,0.00,,,0.00,163,weatherlink.com 1.10,2013-08-07 16:47:00,
2013-08-07 10:02:00,60.0,56.0,30.09,SW,226,3.0,6.0,85,0.00,,,0.00,163,weatherlink.com 1.10,2013-08-07 17:02:00,
2013-08-07 10:17:00,59.7,55.0,30.10,SSW,211,4.0,6.0,85,0.00,,,0.00,165,weatherlink.com 1.10,2013-08-07 17:17:00,
2013-08-07 10:32:00,59.7,55.0,30.11,SW,216,5.0,5.0,85,0.00,,,0.00,204,weatherlink.com 1.10,2013-08-07 17:32:00,
2013-08-07 10:47:00,60.2,56.0,30.11,SSW,196,2.0,7.0,86,0.00,,,0.00,260,weatherlink.com 1.10,2013-08-07 17:47:00,
2013-08-07 11:02:00,60.2,56.0,30.11,SSE,148,1.0,7.0,85,0.00,,,0.00,323,weatherlink.com 1.10,2013-08-07 18:02:00,
2013-08-07 11:17:00,60.9,56.0,30.11,SE,146,3.0,8.0,85,0.00,,,0.00,601,weatherlink.com 1.10,2013-08-07 18:17:00,
2013-08-07 11:32:00,62.3,56.0,30.11,SSW,194,2.0,8.0,81,0.00,,,0.00,471,weatherlink.com 1.10,2013-08-07 18:32:00,
2013-08-07 11:47:00,63.3,56.0,30.11,SW,218,1.0,7.0,78,0.00,,,0.00,561,weatherlink.com 1.10,2013-08-07 18:47:00,
2013-08-07 12:02:00,64.1,57.0,30.11,SW,227,2.0,8.0,77,0.00,,,0.00,984,weatherlink.com 1.10,2013-08-07 19:02:00,
2013-08-07 12:17:00,63.7,57.0,30.11,NNW,341,3.0,7.0,78,0.00,,,0.00,656,weatherlink.com 1.10,2013-08-07 19:17:00,
2013-08-07 12:32:00,63.5,57.0,30.11,SSW,194,2.0,7.0,78,0.00,,,0.00,497,weatherlink.com 1.10,2013-08-07 19:32:00,
2013-08-07 12:47:00,63.5,57.0,30.10,SW,219,7.0,8.0,78,0.00,,,0.00,645,weatherlink.com 1.10,2013-08-07 19:47:00,
2013-08-07 13:02:00,63.1,57.0,30.10,SSW,200,3.0,9.0,79,0.00,,,0.00,450,weatherlink.com 1.10,2013-08-07 20:02:00,
2013-08-07 13:17:00,63.0,56.0,30.10,SW,230,4.0,7.0,79,0.00,,,0.00,701,weatherlink.com 1.10,2013-08-07 20:17:00,
2013-08-07 13:32:00,64.4,56.0,30.10,West,267,0.0,7.0,75,0.00,,,0.00,564,weatherlink.com 1.10,2013-08-07 20:32:00,
2013-08-07 13:47:00,64.1,57.0,30.10,SSE,162,6.0,8.0,77,0.00,,,0.00,557,weatherlink.com 1.10,2013-08-07 20:47:00,
2013-08-07 14:02:00,63.2,56.0,30.10,SSW,200,5.0,9.0,78,0.00,,,0.00,496,weatherlink.com 1.10,2013-08-07 21:02:00,
2013-08-07 14:17:00,63.3,57.0,30.10,SSE,150,2.0,7.0,79,0.00,,,0.00,631,weatherlink.com 1.10,2013-08-07 21:17:00,
2013-08-07 14:32:00,63.8,57.0,30.09,South,177,3.0,7.0,78,0.00,,,0.00,615,weatherlink.com 1.10,2013-08-07 21:32:00,
2013-08-07 14:47:00,64.4,57.0,30.09,SSW,198,5.0,8.0,77,0.00,,,0.00,633,weatherlink.com 1.10,2013-08-07 21:47:00,
2013-08-07 15:02:00,65.0,57.0,30.09,South,173,4.0,8.0,75,0.00,,,0.00,585,weatherlink.com 1.10,2013-08-07 22:02:00,
2013-08-07 15:17:00,65.0,57.0,30.09,South,175,3.0,8.0,76,0.00,,,0.00,949,weatherlink.com 1.10,2013-08-07 22:17:00,
2013-08-07 15:32:00,64.4,57.0,30.08,South,173,0.0,8.0,77,0.00,,,0.00,462,weatherlink.com 1.10,2013-08-07 22:32:00,
2013-08-07 15:47:00,64.8,58.0,30.08,South,175,2.0,7.0,78,0.00,,,0.00,976,weatherlink.com 1.10,2013-08-07 22:47:00,
2013-08-07 16:03:00,64.4,57.0,30.08,South,188,7.0,9.0,78,0.00,,,0.00,816,weatherlink.com 1.10,2013-08-07 23:03:00,
2013-08-07 16:18:00,64.5,58.0,30.07,South,186,2.0,8.0,78,0.00,,,0.00,828,weatherlink.com 1.10,2013-08-07 23:18:00,
2013-08-07 16:33:00,64.2,58.0,30.07,SSE,154,5.0,8.0,79,0.00,,,0.00,408,weatherlink.com 1.10,2013-08-07 23:33:00,
2013-08-07 16:48:00,64.2,58.0,30.07,SE,128,3.0,9.0,80,0.00,,,0.00,531,weatherlink.com 1.10,2013-08-07 23:48:00,
2013-08-07 17:03:00,63.8,58.0,30.07,SW,225,2.0,6.0,80,0.00,,,0.00,301,weatherlink.com 1.10,2013-08-08 00:03:00,
2013-08-07 17:18:00,62.9,57.0,30.07,SSE,162,4.0,6.0,81,0.00,,,0.00,232,weatherlink.com 1.10,2013-08-08 00:18:00,
2013-08-07 17:33:00,62.1,57.0,30.07,SW,231,3.0,8.0,82,0.00,,,0.00,304,weatherlink.com 1.10,2013-08-08 00:33:00,
2013-08-07 17:48:00,62.5,57.0,30.06,SE,138,2.0,8.0,82,0.00,,,0.00,292,weatherlink.com 1.10,2013-08-08 00:48:00,
2013-08-07 18:03:00,63.1,57.0,30.06,South,185,2.0,8.0,81,0.00,,,0.00,200,weatherlink.com 1.10,2013-08-08 01:03:00,
2013-08-07 18:18:00,62.4,57.0,30.05,SSW,211,3.0,6.0,82,0.00,,,0.00,102,weatherlink.com 1.10,2013-08-08 01:18:00,
2013-08-07 18:33:00,61.5,57.0,30.05,South,171,0.0,6.0,84,0.00,,,0.00,46,weatherlink.com 1.10,2013-08-08 01:33:00,
2013-08-07 18:48:00,60.9,56.0,30.05,SSW,202,2.0,6.0,85,0.00,,,0.00,35,weatherlink.com 1.10,2013-08-08 01:48:00,
2013-08-07 19:03:00,60.7,57.0,30.05,SSW,201,1.0,5.0,86,0.00,,,0.00,33,weatherlink.com 1.10,2013-08-08 02:03:00,
2013-08-07 19:18:00,60.8,57.0,30.05,SW,219,0.0,4.0,86,0.00,,,0.00,37,weatherlink.com 1.10,2013-08-08 02:18:00,
2013-08-07 19:33:00,60.8,57.0,30.05,South,184,2.0,4.0,86,0.00,,,0.00,26,weatherlink.com 1.10,2013-08-08 02:33:00,
2013-08-07 19:48:00,60.6,56.0,30.05,South,183,2.0,4.0,86,0.00,,,0.00,11,weatherlink.com 1.10,2013-08-08 02:48:00,
2013-08-07 20:03:00,60.3,57.0,30.05,SW,223,2.0,6.0,87,0.00,,,0.00,0,weatherlink.com 1.10,2013-08-08 03:03:00,
2013-08-07 20:18:00,60.2,56.0,30.04,West,267,0.0,5.0,87,0.00,,,0.00,0,weatherlink.com 1.10,2013-08-08 03:18:00,
2013-08-07 20:33:00,60.0,56.0,30.04,SSW,202,3.0,4.0,87,0.00,,,0.00,0,weatherlink.com 1.10,2013-08-08 03:33:00,
2013-08-07 20:48:00,59.8,56.0,30.04,South,175,2.0,5.0,88,0.00,,,0.00,0,weatherlink.com 1.10,2013-08-08 03:48:00,
2013-08-07 21:03:00,59.7,57.0,30.04,SSW,199,0.0,6.0,89,0.00,,,0.00,0,weatherlink.com 1.10,2013-08-08 04:03:00,
2013-08-07 21:18:00,59.6,56.0,30.05,SW,232,0.0,4.0,89,0.00,,,0.00,0,weatherlink.com 1.10,2013-08-08 04:18:00,
2013-08-07 21:33:00,59.5,56.0,30.05,SW,227,3.0,4.0,89,0.00,,,0.00,0,weatherlink.com 1.10,2013-08-08 04:33:00,
2013-08-07 21:48:00,59.5,57.0,30.05,SW,215,4.0,4.0,90,0.00,,,0.00,0,weatherlink.com 1.10,2013-08-08 04:48:00,
2013-08-07 22:03:00,59.2,56.0,30.05,SSW,203,1.0,3.0,90,0.00,,,0.00,0,weatherlink.com 1.10,2013-08-08 05:03:00,
2013-08-07 22:18:00,59.2,56.0,30.05,SSW,205,0.0,2.0,90,0.00,,,0.00,0,weatherlink.com 1.10,2013-08-08 05:18:00,
2013-08-07 22:33:00,59.2,56.0,30.04,SSE,148,1.0,4.0,90,0.00,,,0.00,0,weatherlink.com 1.10,2013-08-08 05:33:00,
2013-08-07 22:48:00,59.3,56.0,30.05,SSE,157,1.0,5.0,90,0.00,,,0.00,0,weatherlink.com 1.10,2013-08-08 05:48:00,
2013-08-07 23:03:00,59.2,56.0,30.04,SSW,203,1.0,4.0,90,0.00,,,0.00,0,weatherlink.com 1.10,2013-08-08 06:03:00,
2013-08-07 23:18:00,59.1,57.0,30.04,WSW,246,0.0,4.0,91,0.00,,,0.00,0,weatherlink.com 1.10,2013-08-08 06:18:00,
2013-08-07 23:33:00,59.0,57.0,30.04,South,178,3.0,5.0,92,0.00,,,0.00,0,weatherlink.com 1.10,2013-08-08 06:33:00,
2013-08-07 23:48:00,58.9,57.0,30.04,South,186,2.0,5.0,92,0.00,,,0.00,0,weatherlink.com 1.10,2013-08-08 06:48:00,